Time;durP1;ratioP1;P1;durP2;ratioP2;P2;SDS_P1;SDS_P2;PMS_P1;PMS_P2;Temp;Humidity;BMP_temperature;BMP_pressure;BME280_temperature;BME280_humidity;BME280_pressure;Samples;Min_cycle;Max_cycle;Signal;HPM_P1;HPM_P2
2021/08/12 00:00:23;;;;;;;;;4.00;4.00;;;;;26.40;42.35;101829.25;5014405;28;46303;-71
2021/08/12 00:02:50;;;;;;;;;3.00;3.00;;;;;26.50;41.93;101846.84;5014824;28;45287;-72
2021/08/12 00:05:15;;;;;;;;;3.50;3.50;;;;;26.46;41.99;101834.91;5015037;28;45363;-72
2021/08/12 00:07:41;;;;;;;;;2.75;2.00;;;;;26.50;42.14;101842.34;5015305;28;45450;-71
2021/08/12 00:10:07;;;;;;;;;3.75;3.75;;;;;26.43;42.24;101836.06;5014834;28;46305;-72
2021/08/12 00:12:32;;;;;;;;;2.75;2.75;;;;;26.47;42.31;101845.38;5014650;28;45398;-72
2021/08/12 00:14:57;;;;;;;;;3.25;3.00;;;;;26.45;42.35;101844.75;5014365;28;45287;-72
2021/08/12 00:17:23;;;;;;;;;3.25;3.25;;;;;26.49;42.64;101850.53;5014840;28;45496;-71
2021/08/12 00:19:48;;;;;;;;;2.00;2.00;;;;;26.47;42.63;101853.38;5014799;28;46366;-71
2021/08/12 00:22:14;;;;;;;;;3.75;3.00;;;;;26.50;42.35;101855.69;5015191;28;46959;-71
2021/08/12 00:24:39;;;;;;;;;3.50;3.50;;;;;26.47;42.14;101857.88;5014502;28;45723;-72
2021/08/12 00:27:04;;;;;;;;;3.75;3.75;;;;;26.48;42.41;101859.56;5014857;28;45500;-74
2021/08/12 00:29:30;;;;;;;;;3.00;3.00;;;;;26.44;42.53;101845.75;5014122;28;45682;-74
2021/08/12 00:31:56;;;;;;;;;5.00;4.00;;;;;26.49;42.37;101842.53;5014753;28;45540;-74
2021/08/12 00:34:21;;;;;;;;;3.00;3.00;;;;;26.48;42.28;101843.53;5013146;28;45477;-74
2021/08/12 00:36:47;;;;;;;;;2.00;2.00;;;;;26.40;42.31;101831.94;5014358;28;46489;-74
2021/08/12 00:39:12;;;;;;;;;3.00;3.00;;;;;26.38;42.42;101830.47;5014478;28;46286;-74
2021/08/12 00:41:40;;;;;;;;;2.75;2.75;;;;;26.48;42.26;101846.22;5014627;28;45410;-74
2021/08/12 00:44:07;;;;;;;;;2.75;2.75;;;;;26.46;42.27;101835.75;5012889;28;45278;-73
2021/08/12 00:46:32;;;;;;;;;4.75;4.75;;;;;26.33;41.95;101816.84;5015087;28;45164;-74
2021/08/12 00:48:58;;;;;;;;;5.50;2.25;;;;;26.41;42.54;101830.91;5013997;28;46862;-74
2021/08/12 00:51:23;;;;;;;;;3.75;3.75;;;;;26.41;42.04;101833.56;4996411;28;45501;-74
2021/08/12 00:53:49;;;;;;;;;5.00;2.25;;;;;26.47;42.16;101847.22;5016539;28;45310;-74
2021/08/12 00:56:15;;;;;;;;;3.00;3.00;;;;;26.47;42.69;101833.88;5018033;28;45345;-75
2021/08/12 00:58:41;;;;;;;;;3.00;3.00;;;;;26.39;42.33;101822.25;5017921;28;45438;-74
2021/08/12 01:01:06;;;;;;;;;3.00;3.00;;;;;26.37;42.26;101813.63;5017755;28;46383;-74
2021/08/12 01:03:31;;;;;;;;;4.00;3.00;;;;;26.41;42.79;101816.75;5017601;28;45494;-74
2021/08/12 01:05:58;;;;;;;;;2.00;2.00;;;;;26.42;42.15;101813.06;5017604;28;45403;-74
2021/08/12 01:08:36;;;;;;;;;3.25;2.75;;;;;26.47;42.49;101813.34;5017539;28;47139;-75
2021/08/12 01:11:25;;;;;;;;;3.75;2.25;;;;;26.46;42.20;101824.22;5017461;28;45223;-74
2021/08/12 01:14:06;;;;;;;;;2.75;2.75;;;;;26.46;42.28;101813.56;5014672;28;45377;-74
2021/08/12 01:16:38;;;;;;;;;2.75;2.75;;;;;26.46;42.14;101810.88;5017260;28;45506;-74
2021/08/12 01:19:21;;;;;;;;;4.25;4.25;;;;;26.47;42.14;101809.84;5017062;28;47405;-74
2021/08/12 01:21:55;;;;;;;;;3.00;3.00;;;;;26.47;42.27;101816.03;5017230;28;46027;-74
2021/08/12 01:24:24;;;;;;;;;2.75;2.75;;;;;26.40;42.32;101805.25;5017188;28;45313;-74
2021/08/12 01:26:53;;;;;;;;;3.00;3.00;;;;;26.47;42.23;101821.38;5016854;28;45285;-74
2021/08/12 01:29:34;;;;;;;;;3.00;3.00;;;;;26.42;42.26;101810.38;5017032;28;47281;-72
2021/08/12 01:32:20;;;;;;;;;3.00;3.00;;;;;26.43;42.60;101817.41;5017037;28;45264;-72
2021/08/12 01:35:06;;;;;;;;;2.50;2.50;;;;;26.46;42.23;101822.41;5014206;28;45284;-72
2021/08/12 01:37:40;;;;;;;;;2.25;2.25;;;;;26.48;42.21;101824.88;5017982;28;45231;-72
2021/08/12 01:40:10;;;;;;;;;3.00;3.00;;;;;26.38;42.21;101809.97;5016717;28;46497;-72
2021/08/12 01:42:35;;;;;;;;;3.25;3.00;;;;;26.43;42.09;101809.38;5016425;28;45445;-72
2021/08/12 01:45:01;;;;;;;;;2.00;2.00;;;;;26.48;42.43;101827.53;5016999;28;45558;-72
2021/08/12 01:47:29;;;;;;;;;4.00;3.75;;;;;26.47;42.20;101818.69;5017116;28;45388;-72
2021/08/12 01:49:55;;;;;;;;;3.00;3.00;;;;;26.50;41.89;101823.66;5016926;28;46420;-74
2021/08/12 01:52:22;;;;;;;;;4.00;4.00;;;;;26.50;42.13;101814.81;5017288;28;45261;-74
2021/08/12 01:54:49;;;;;;;;;2.25;1.25;;;;;26.47;42.16;101813.34;5016672;28;45508;-74
2021/08/12 01:57:16;;;;;;;;;4.00;4.00;;;;;26.43;42.33;101804.06;5016360;28;45475;-74
2021/08/12 01:59:43;;;;;;;;;3.25;3.25;;;;;26.45;42.29;101803.88;4998762;28;46630;-74
2021/08/12 02:02:11;;;;;;;;;2.25;2.25;;;;;26.42;41.97;101799.72;5016693;28;45353;-74
2021/08/12 02:04:37;;;;;;;;;2.50;2.50;;;;;26.31;42.10;101795.69;5017013;28;45275;-74
2021/08/12 02:07:05;;;;;;;;;2.75;2.75;;;;;26.50;42.19;101801.47;5016428;28;45297;-74
2021/08/12 02:09:31;;;;;;;;;2.25;2.25;;;;;26.47;41.95;101791.19;5016326;28;45524;-74
2021/08/12 02:11:57;;;;;;;;;2.25;2.25;;;;;26.48;42.23;101796.34;5016137;28;45458;-75
2021/08/12 02:14:22;;;;;;;;;2.25;2.25;;;;;26.48;42.18;101788.34;5016594;28;45480;-75
2021/08/12 02:16:47;;;;;;;;;3.75;3.75;;;;;26.41;42.30;101788.22;5016870;28;45539;-74
2021/08/12 02:19:13;;;;;;;;;4.00;2.00;;;;;26.45;42.02;101793.22;5016628;28;46464;-74
2021/08/12 02:21:45;;;;;;;;;2.50;2.50;;;;;26.38;42.14;101780.59;5016452;28;45355;-74
2021/08/12 02:24:27;;;;;;;;;3.75;3.25;;;;;26.45;42.05;101786.03;5016296;28;45449;-74
2021/08/12 02:27:00;;;;;;;;;3.25;3.25;;;;;26.46;42.25;101793.03;5015940;28;46364;-74
2021/08/12 02:29:28;;;;;;;;;2.75;2.75;;;;;26.39;42.32;101789.41;5015872;28;45480;-74
2021/08/12 02:31:55;;;;;;;;;4.00;3.25;;;;;26.45;42.20;101801.22;5016390;28;45700;-74
2021/08/12 02:34:24;;;;;;;;;3.50;3.25;;;;;26.40;42.08;101781.25;5016616;28;45390;-74
2021/08/12 02:36:51;;;;;;;;;2.50;2.50;;;;;26.37;42.07;101778.94;5015918;28;45531;-74
2021/08/12 02:39:16;;;;;;;;;2.50;2.50;;;;;26.42;42.25;101791.72;5015756;28;45506;-74
2021/08/12 02:41:43;;;;;;;;;3.00;3.00;;;;;26.38;42.21;101779.78;5015974;28;45295;-72
2021/08/12 02:44:11;;;;;;;;;2.00;2.00;;;;;26.44;42.30;101800.38;5016143;28;45438;-72
2021/08/12 02:46:38;;;;;;;;;3.00;3.00;;;;;26.39;42.38;101798.25;5016508;28;45569;-71
2021/08/12 02:49:06;;;;;;;;;2.50;2.50;;;;;26.38;42.22;101787.78;5015669;28;46385;-71
2021/08/12 02:51:33;;;;;;;;;2.50;2.00;;;;;26.45;42.43;101809.22;5015845;28;45314;-72
2021/08/12 02:54:00;;;;;;;;;3.50;3.50;;;;;26.39;42.48;101792.09;5015576;28;45362;-72
2021/08/12 02:56:26;;;;;;;;;3.75;3.75;;;;;26.39;42.18;101798.25;5015822;28;45596;-72
2021/08/12 02:58:52;;;;;;;;;1.50;1.50;;;;;26.36;42.06;101784.47;5015771;28;47253;-72
2021/08/12 03:01:19;;;;;;;;;3.25;3.25;;;;;26.37;42.04;101794.94;5016179;28;45489;-72
2021/08/12 03:03:48;;;;;;;;;2.50;2.50;;;;;26.45;42.30;101807.38;5015634;28;45417;-72
2021/08/12 03:06:19;;;;;;;;;4.25;3.00;;;;;26.37;42.15;101789.63;5015489;28;45461;-72
2021/08/12 03:08:47;;;;;;;;;2.00;2.00;;;;;26.43;41.92;101805.88;5014732;28;45490;-71
2021/08/12 03:11:15;;;;;;;;;2.25;2.25;;;;;26.46;42.20;101816.22;5015592;28;45445;-72
2021/08/12 03:13:42;;;;;;;;;3.00;3.00;;;;;26.47;42.15;101815.19;5016324;28;45472;-72
2021/08/12 03:16:07;;;;;;;;;4.25;3.00;;;;;26.46;41.96;101816.22;5014834;28;45593;-72
2021/08/12 03:18:33;;;;;;;;;1.75;1.75;;;;;26.32;42.32;101791.19;5015195;28;46435;-72
2021/08/12 03:21:05;;;;;;;;;3.75;3.75;;;;;26.36;42.14;101790.63;5015637;28;45432;-72
2021/08/12 03:23:31;;;;;;;;;2.75;2.75;;;;;26.40;42.11;101799.09;5015105;28;45350;-71
2021/08/12 03:25:56;;;;;;;;;3.75;3.75;;;;;26.43;41.97;101795.22;5015583;28;45715;-72
2021/08/12 03:28:21;;;;;;;;;2.00;2.00;;;;;26.45;42.02;101807.38;5015942;28;45371;-71
2021/08/12 03:30:47;;;;;;;;;4.00;3.00;;;;;26.43;42.08;101809.38;5015127;28;45321;-72
2021/08/12 03:33:12;;;;;;;;;3.00;3.00;;;;;26.42;42.11;101797.06;5015549;28;45504;-72
2021/08/12 03:35:37;;;;;;;;;3.00;3.00;;;;;26.39;41.89;101787.59;5015097;28;45409;-71
2021/08/12 03:38:03;;;;;;;;;4.75;3.00;;;;;26.48;42.01;101800.84;5014784;28;46067;-72
2021/08/12 03:40:28;;;;;;;;;2.25;2.25;;;;;26.43;41.93;101787.22;5015865;28;45389;-72
2021/08/12 03:42:54;;;;;;;;;2.00;2.00;;;;;26.41;42.16;101777.53;5015204;28;45397;-72
2021/08/12 03:45:19;;;;;;;;;3.00;2.75;;;;;26.45;42.18;101788.72;5015082;28;45390;-71
2021/08/12 03:47:44;;;;;;;;;2.00;2.00;;;;;26.43;42.22;101779.22;5014907;28;46503;-72
2021/08/12 03:50:10;;;;;;;;;2.50;2.50;;;;;26.45;42.17;101785.22;5015269;28;45315;-71
2021/08/12 03:52:36;;;;;;;;;6.25;4.00;;;;;26.44;42.07;101789.72;5015400;28;45333;-72
2021/08/12 03:55:01;;;;;;;;;4.00;4.00;;;;;26.44;42.18;101783.56;5014881;28;45262;-71
2021/08/12 03:57:27;;;;;;;;;3.00;3.00;;;;;26.43;42.08;101789.88;5014909;28;45631;-72
2021/08/12 03:59:52;;;;;;;;;3.00;3.00;;;;;26.43;42.04;101787.22;5015013;28;45367;-74
2021/08/12 04:02:17;;;;;;;;;4.00;2.25;;;;;26.41;42.13;101782.06;5015011;28;45378;-72
2021/08/12 04:04:43;;;;;;;;;2.50;2.50;;;;;26.39;42.17;101781.41;5015316;28;45307;-72
2021/08/12 04:07:08;;;;;;;;;3.00;3.00;;;;;26.43;41.85;101781.88;5014623;28;45432;-73
2021/08/12 04:09:33;;;;;;;;;2.00;2.00;;;;;26.41;42.06;101774.06;5014703;28;45366;-72
2021/08/12 04:11:59;;;;;;;;;3.00;3.00;;;;;26.38;42.28;101777.09;4997152;28;45380;-72
2021/08/12 04:14:24;;;;;;;;;2.75;2.00;;;;;26.44;42.17;101787.03;5014802;28;45453;-72
2021/08/12 04:16:52;;;;;;;;;2.75;2.75;;;;;26.43;42.15;101785.38;5014709;28;46397;-72
2021/08/12 04:19:17;;;;;;;;;3.00;3.00;;;;;26.40;42.17;101777.75;5015144;28;45495;-72
2021/08/12 04:21:43;;;;;;;;;3.50;3.50;;;;;26.41;41.88;101774.88;5014376;28;45415;-73
2021/08/12 04:24:08;;;;;;;;;2.00;2.00;;;;;26.29;42.30;101752.38;5014598;28;45388;-72
2021/08/12 04:26:33;;;;;;;;;4.00;4.00;;;;;26.42;42.14;101770.38;5014346;28;47217;-72
2021/08/12 04:28:59;;;;;;;;;4.00;2.00;;;;;26.38;42.42;101767.28;5016786;28;45291;-72
2021/08/12 04:31:24;;;;;;;;;2.00;2.00;;;;;26.43;42.15;101771.19;5018861;28;45392;-73
2021/08/12 04:33:50;;;;;;;;;4.00;2.00;;;;;26.43;42.25;101771.19;5018106;28;45444;-72
2021/08/12 04:36:16;;;;;;;;;2.00;2.00;;;;;26.38;42.10;101761.09;5017512;28;45315;-72
2021/08/12 04:38:41;;;;;;;;;2.50;2.50;;;;;26.38;41.77;101759.25;5018063;28;45453;-72
2021/08/12 04:41:07;;;;;;;;;2.75;2.75;;;;;26.38;42.12;101759.25;5018147;28;45310;-73
2021/08/12 04:43:32;;;;;;;;;3.00;3.00;;;;;26.25;42.15;101740.44;5018524;28;45237;-72
2021/08/12 04:45:58;;;;;;;;;2.50;2.50;;;;;26.39;42.27;101757.41;5017549;28;45590;-72
2021/08/12 04:48:23;;;;;;;;;2.75;2.00;;;;;25.81;42.09;101669.16;5017771;28;45378;-73
2021/08/12 04:50:49;;;;;;;;;2.75;2.75;;;;;26.40;41.98;101765.22;5017454;28;45524;-72
2021/08/12 04:53:14;;;;;;;;;5.50;3.00;;;;;26.34;42.02;101751.81;5017919;28;45468;-72
2021/08/12 04:55:40;;;;;;;;;3.00;3.00;;;;;26.43;42.14;101763.19;5018371;28;46360;-72
2021/08/12 04:58:06;;;;;;;;;2.00;2.00;;;;;26.41;41.67;101753.53;5017539;28;45388;-73
2021/08/12 05:00:32;;;;;;;;;3.25;2.50;;;;;26.38;42.00;101753.94;5017670;28;45272;-72
2021/08/12 05:02:57;;;;;;;;;2.75;2.75;;;;;26.41;42.10;101750.06;5017725;28;45434;-73
2021/08/12 05:05:22;;;;;;;;;2.00;2.00;;;;;26.40;41.85;101749.22;5016701;28;46461;-72
2021/08/12 05:07:48;;;;;;;;;4.50;3.50;;;;;26.42;42.08;101741.03;4999996;28;45264;-73
2021/08/12 05:10:13;;;;;;;;;3.00;3.00;;;;;26.45;42.21;101762.03;5018014;28;45354;-73
2021/08/12 05:12:39;;;;;;;;;2.50;2.50;;;;;26.43;41.88;101763.19;5017467;28;45352;-72
2021/08/12 05:15:04;;;;;;;;;3.00;3.00;;;;;26.34;41.76;101752.63;5017302;28;45547;-73
2021/08/12 05:17:30;;;;;;;;;2.50;2.50;;;;;26.38;41.83;101764.59;5017548;28;45449;-73
2021/08/12 05:19:55;;;;;;;;;2.00;2.00;;;;;26.42;42.01;101767.69;5017471;28;45449;-73
2021/08/12 05:22:22;;;;;;;;;3.00;2.00;;;;;26.43;41.96;101769.38;5000039;28;45417;-72
2021/08/12 05:24:48;;;;;;;;;1.25;1.25;;;;;26.46;42.05;101771.69;5016892;28;45742;-72
2021/08/12 05:27:13;;;;;;;;;2.00;2.00;;;;;26.41;41.89;101764.19;5017169;28;45478;-73
2021/08/12 05:29:39;;;;;;;;;3.25;3.25;;;;;26.41;41.84;101766.88;5017481;28;45382;-72
2021/08/12 05:32:04;;;;;;;;;2.00;2.00;;;;;26.47;41.85;101776.00;5017393;28;45389;-73
2021/08/12 05:34:30;;;;;;;;;3.75;3.75;;;;;26.47;41.98;101768.00;5017251;28;47068;-75
2021/08/12 05:36:56;;;;;;;;;4.25;4.25;;;;;26.46;42.32;101776.19;5016814;28;45287;-74
2021/08/12 05:39:21;;;;;;;;;2.00;2.00;;;;;26.42;41.90;101765.03;5016674;28;45575;-74
2021/08/12 05:41:47;;;;;;;;;2.50;2.00;;;;;26.45;42.21;101774.53;5017184;28;45436;-74
2021/08/12 05:44:12;;;;;;;;;5.50;3.00;;;;;26.41;42.00;101760.72;5016718;28;46130;-74
2021/08/12 05:46:37;;;;;;;;;3.00;3.00;;;;;26.45;42.13;101775.38;5017512;28;45464;-74
2021/08/12 05:49:03;;;;;;;;;3.50;2.00;;;;;26.42;41.92;101767.69;5016679;28;45688;-74
2021/08/12 05:51:30;;;;;;;;;2.00;2.00;;;;;26.39;42.13;101771.56;5016913;28;45462;-74
2021/08/12 05:53:56;;;;;;;;;3.00;3.00;;;;;26.36;41.78;101761.28;5016843;28;46883;-74
2021/08/12 05:56:21;;;;;;;;;3.00;3.00;;;;;26.37;42.18;101757.59;5016878;28;45256;-74
2021/08/12 05:58:46;;;;;;;;;3.00;3.00;;;;;26.38;42.10;101758.44;5017342;28;45234;-74
2021/08/12 06:01:12;;;;;;;;;2.00;2.00;;;;;26.42;42.10;101765.03;5017535;28;45477;-74
2021/08/12 06:03:37;;;;;;;;;3.75;2.75;;;;;26.26;42.25;101742.91;5016214;28;45374;-74
2021/08/12 06:06:02;;;;;;;;;3.00;3.00;;;;;26.42;42.25;101778.38;5016699;28;45245;-74
2021/08/12 06:08:28;;;;;;;;;4.00;4.00;;;;;26.43;42.33;101784.53;5016863;28;45665;-75
2021/08/12 06:10:53;;;;;;;;;3.00;3.00;;;;;26.38;41.85;101779.78;5016888;28;45416;-74
2021/08/12 06:13:19;;;;;;;;;3.50;3.50;;;;;26.44;42.32;101797.72;5017100;28;45341;-74
2021/08/12 06:15:44;;;;;;;;;3.00;2.75;;;;;26.18;42.11;101748.34;5016316;28;45341;-75
2021/08/12 06:18:12;;;;;;;;;3.75;3.00;;;;;26.45;42.22;101790.53;5016287;28;45362;-74
2021/08/12 06:20:39;;;;;;;;;3.00;3.00;;;;;26.40;42.12;101775.91;5016633;28;45385;-74
2021/08/12 06:23:06;;;;;;;;;3.00;3.00;;;;;26.20;42.16;101751.66;5016052;28;46323;-74
2021/08/12 06:25:32;;;;;;;;;3.00;2.75;;;;;26.37;42.37;101786.13;5016861;28;45576;-72
2021/08/12 06:27:58;;;;;;;;;3.00;3.00;;;;;26.41;42.09;101798.09;5016131;28;45343;-72
2021/08/12 06:30:23;;;;;;;;;2.00;2.00;;;;;26.31;42.07;101777.00;5016191;28;45419;-74
2021/08/12 06:32:48;;;;;;;;;3.00;1.75;;;;;26.46;42.34;101792.22;5015925;28;46414;-74
2021/08/12 06:35:14;;;;;;;;;3.75;3.75;;;;;26.41;42.36;101793.56;5016172;28;45515;-74
2021/08/12 06:37:46;;;;;;;;;2.00;2.00;;;;;26.47;42.20;101801.84;5017049;28;45452;-74
2021/08/12 06:40:16;;;;;;;;;2.00;2.00;;;;;26.45;41.87;101803.88;5016382;28;45609;-75
2021/08/12 06:42:41;;;;;;;;;3.00;3.00;;;;;26.45;41.95;101790.53;5015716;28;45591;-74
2021/08/12 06:45:07;;;;;;;;;4.00;4.00;;;;;26.46;42.20;101793.03;5015747;28;45393;-72
2021/08/12 06:47:37;;;;;;;;;3.00;3.00;;;;;26.28;42.24;101758.72;5015879;28;45541;-72
2021/08/12 06:50:06;;;;;;;;;3.25;3.25;;;;;26.45;42.15;101785.22;5015536;28;45464;-72
2021/08/12 06:52:33;;;;;;;;;3.25;3.25;;;;;26.45;42.06;101793.22;5015836;28;47713;-72
2021/08/12 06:54:58;;;;;;;;;2.75;2.75;;;;;26.47;42.04;101805.34;5015638;28;45295;-72
2021/08/12 06:57:24;;;;;;;;;2.00;2.00;;;;;26.45;42.09;101795.88;5015761;28;45311;-72
2021/08/12 06:59:49;;;;;;;;;3.00;3.00;;;;;26.45;42.00;101795.88;5015928;28;45469;-72
2021/08/12 07:02:15;;;;;;;;;3.00;2.00;;;;;26.28;41.99;101775.53;5015497;28;46118;-72
2021/08/12 07:04:40;;;;;;;;;3.00;3.00;;;;;26.41;42.04;101790.88;5016289;28;45305;-72
2021/08/12 07:07:06;;;;;;;;;2.75;2.75;;;;;26.48;42.41;101796.34;5015814;28;45800;-74
2021/08/12 07:09:31;;;;;;;;;3.50;3.50;;;;;26.38;42.42;101780.59;5015665;28;45473;-74
2021/08/12 07:11:56;;;;;;;;;3.00;3.00;;;;;26.46;42.00;101789.53;5015485;28;45562;-74
2021/08/12 07:14:22;;;;;;;;;3.00;3.00;;;;;26.47;42.02;101794.69;5015724;28;45476;-75
2021/08/12 07:16:48;;;;;;;;;4.00;2.00;;;;;26.47;42.43;101801.84;5015562;28;45240;-74
2021/08/12 07:19:13;;;;;;;;;3.25;3.00;;;;;26.45;42.15;101795.88;5016054;28;45561;-74
2021/08/12 07:21:42;;;;;;;;;4.00;4.00;;;;;26.41;41.95;101785.53;5015271;28;45432;-74
2021/08/12 07:24:08;;;;;;;;;3.00;3.00;;;;;26.46;42.04;101787.72;5015311;28;45612;-75
2021/08/12 07:26:34;;;;;;;;;3.25;2.50;;;;;26.45;42.03;101782.53;5015467;28;45476;-74
2021/08/12 07:29:00;;;;;;;;;4.00;2.25;;;;;26.42;42.24;101781.03;5015485;28;45367;-75
2021/08/12 07:31:25;;;;;;;;;3.00;3.00;;;;;26.49;41.74;101794.50;5015377;28;45452;-75
2021/08/12 07:33:51;;;;;;;;;4.00;4.00;;;;;26.51;42.05;101801.31;5015290;28;45472;-74
2021/08/12 07:36:16;;;;;;;;;3.50;3.50;;;;;26.40;41.92;101781.25;5015115;28;45465;-74
2021/08/12 07:38:43;;;;;;;;;4.00;4.00;;;;;26.53;41.73;101798.44;5015415;28;45409;-74
2021/08/12 07:41:08;;;;;;;;;3.25;3.00;;;;;26.50;41.95;101791.63;5015159;28;46609;-74
2021/08/12 07:43:33;;;;;;;;;3.00;3.00;;;;;26.44;42.11;101791.56;5015605;28;45355;-74
2021/08/12 07:45:59;;;;;;;;;3.00;3.00;;;;;26.52;41.84;101805.63;5014724;28;45426;-75
2021/08/12 07:48:24;;;;;;;;;3.75;3.75;;;;;26.48;41.83;101791.00;5015082;28;45639;-75
2021/08/12 07:50:50;;;;;;;;;2.25;2.25;;;;;26.51;42.02;101792.47;5014886;28;46196;-74
2021/08/12 07:53:16;;;;;;;;;2.25;2.25;;;;;26.51;41.84;101792.47;5015243;28;45441;-75
2021/08/12 07:55:41;;;;;;;;;3.00;2.00;;;;;26.45;42.14;101783.38;5015864;28;45437;-74
2021/08/12 07:58:06;;;;;;;;;4.25;3.25;;;;;26.51;41.75;101787.13;5014875;28;45515;-74
2021/08/12 08:00:32;;;;;;;;;2.50;2.50;;;;;26.44;42.21;101776.38;5014570;28;45518;-74
2021/08/12 08:02:58;;;;;;;;;4.00;4.00;;;;;26.51;42.03;101787.97;4996660;28;45402;-74
2021/08/12 08:05:25;;;;;;;;;4.50;4.00;;;;;26.51;42.17;101787.97;5014980;28;45507;-74
2021/08/12 08:07:52;;;;;;;;;2.50;2.00;;;;;26.52;42.17;101789.59;5015130;28;45180;-75
2021/08/12 08:10:19;;;;;;;;;3.00;3.00;;;;;26.44;42.07;101776.38;4997181;28;46385;-75
2021/08/12 08:12:45;;;;;;;;;2.75;2.75;;;;;26.50;41.96;101785.47;5014094;28;45470;-75
2021/08/12 08:15:14;;;;;;;;;4.25;3.00;;;;;26.47;42.20;101772.50;5014818;28;45474;-74
2021/08/12 08:17:39;;;;;;;;;4.50;4.25;;;;;26.49;41.75;101781.16;5014691;28;45444;-75
2021/08/12 08:20:06;;;;;;;;;2.25;2.25;;;;;26.51;42.00;101785.31;5014659;28;45529;-75
2021/08/12 08:22:32;;;;;;;;;2.00;2.00;;;;;26.52;41.89;101781.59;4997466;28;45329;-74
2021/08/12 08:24:57;;;;;;;;;4.50;3.00;;;;;26.42;41.83;101757.03;5014460;28;45219;-74
2021/08/12 08:27:23;;;;;;;;;2.00;2.00;;;;;26.49;41.83;101765.97;5014287;28;45452;-74
2021/08/12 08:29:49;;;;;;;;;3.00;3.00;;;;;26.52;41.88;101775.44;5014453;28;45326;-74
2021/08/12 08:32:16;;;;;;;;;3.00;3.00;;;;;26.50;42.03;101766.78;5014492;28;45995;-75
2021/08/12 08:34:42;;;;;;;;;4.00;3.00;;;;;26.39;42.01;101747.56;5014946;28;45326;-74
2021/08/12 08:37:07;;;;;;;;;4.25;4.25;;;;;26.45;42.12;101759.34;5014351;28;45551;-75
2021/08/12 08:39:33;;;;;;;;;3.25;3.25;;;;;26.52;41.97;101764.75;5014156;28;45513;-74
2021/08/12 08:41:59;;;;;;;;;2.25;2.25;;;;;26.46;41.91;101760.19;5014019;28;45471;-72
2021/08/12 08:44:25;;;;;;;;;4.25;4.25;;;;;26.53;42.32;101774.44;5014257;28;45500;-72
2021/08/12 08:46:51;;;;;;;;;3.75;3.75;;;;;26.49;42.03;101759.81;5014499;28;45271;-73
2021/08/12 08:49:21;;;;;;;;;3.00;3.00;;;;;26.48;41.83;101766.16;5014692;28;45493;-72
2021/08/12 08:51:52;;;;;;;;;4.25;4.25;;;;;26.52;41.87;101770.94;5014084;28;45467;-76
2021/08/12 08:54:18;;;;;;;;;3.00;3.00;;;;;26.56;42.18;101781.22;5014166;28;45589;-75
2021/08/12 08:56:45;;;;;;;;;3.00;3.00;;;;;26.53;41.91;101777.09;4995950;28;45613;-74
2021/08/12 08:59:11;;;;;;;;;2.00;2.00;;;;;26.57;41.57;101782.91;5013930;28;46337;-73
2021/08/12 09:01:36;;;;;;;;;3.00;3.00;;;;;26.51;42.12;101777.28;5014640;28;45521;-73
2021/08/12 09:04:02;;;;;;;;;4.00;3.00;;;;;26.56;41.75;101787.41;5014151;28;45596;-73
2021/08/12 09:06:28;;;;;;;;;3.00;3.00;;;;;26.51;42.10;101782.63;5013886;28;45546;-73
2021/08/12 09:08:59;;;;;;;;;2.75;2.50;;;;;26.57;42.29;101783.69;5014010;28;45541;-73
2021/08/12 09:11:26;;;;;;;;;3.75;3.75;;;;;26.57;41.98;101786.38;5013705;28;45330;-73
2021/08/12 09:13:53;;;;;;;;;4.00;4.00;;;;;26.56;41.73;101782.06;5014908;28;45405;-74
2021/08/12 09:16:35;;;;;;;;;2.00;2.00;;;;;26.56;41.90;101783.91;5017828;28;45445;-74
2021/08/12 09:19:19;;;;;;;;;3.25;2.75;;;;;26.55;41.69;101776.91;5017164;28;45626;-73
2021/08/12 09:21:45;;;;;;;;;4.00;4.00;;;;;26.55;42.08;101774.22;5017015;28;45420;-74
2021/08/12 09:24:10;;;;;;;;;4.25;4.00;;;;;26.49;42.26;101771.28;5017254;28;45499;-73
2021/08/12 09:26:40;;;;;;;;;3.25;2.00;;;;;26.57;41.78;101785.56;5017087;28;45409;-73
2021/08/12 09:29:06;;;;;;;;;4.50;3.00;;;;;26.50;41.75;101769.47;5017227;28;46174;-73
2021/08/12 09:31:33;;;;;;;;;4.75;3.00;;;;;26.57;41.72;101777.56;5017752;28;45231;-73
2021/08/12 09:33:58;;;;;;;;;2.25;2.25;;;;;26.51;41.82;101763.13;5016965;28;45691;-73
2021/08/12 09:36:24;;;;;;;;;3.75;3.00;;;;;26.57;41.72;101774.88;5016711;28;45584;-73
2021/08/12 09:39:09;;;;;;;;;4.00;2.00;;;;;26.57;42.04;101774.88;5016533;28;45991;-74
2021/08/12 09:41:38;;;;;;;;;4.00;4.00;;;;;26.57;42.02;101772.22;5016881;28;45502;-73
2021/08/12 09:44:03;;;;;;;;;2.75;2.50;;;;;26.52;41.99;101756.75;5016756;28;45457;-74
2021/08/12 09:46:34;;;;;;;;;2.00;2.00;;;;;26.39;41.98;101744.88;5017505;28;45395;-73
2021/08/12 09:48:59;;;;;;;;;2.00;2.00;;;;;26.48;42.04;101759.00;5016844;28;46566;-73
2021/08/12 09:51:33;;;;;;;;;3.75;3.00;;;;;26.57;41.87;101764.22;5016557;28;45501;-73
2021/08/12 09:54:04;;;;;;;;;3.50;3.00;;;;;26.44;42.11;101754.22;5016888;28;45443;-73
2021/08/12 09:56:30;;;;;;;;;2.25;2.25;;;;;26.56;41.81;101775.91;5016444;28;45414;-73
2021/08/12 09:59:07;;;;;;;;;3.75;2.50;;;;;26.56;41.83;101782.06;5016741;28;46189;-73
2021/08/12 10:01:32;;;;;;;;;5.00;3.00;;;;;26.55;42.10;101780.41;5016564;28;45445;-74
2021/08/12 10:03:58;;;;;;;;;2.00;2.00;;;;;26.54;42.15;101788.59;5016634;28;45561;-72
2021/08/12 10:06:27;;;;;;;;;2.50;2.50;;;;;26.56;42.16;101795.41;5016697;28;47405;-73
2021/08/12 10:08:53;;;;;;;;;4.00;4.00;;;;;26.52;41.91;101778.94;5016070;28;46174;-72
2021/08/12 10:11:27;;;;;;;;;3.75;2.75;;;;;26.57;42.06;101790.91;5016643;28;45399;-73
2021/08/12 10:13:58;;;;;;;;;3.75;3.75;;;;;26.57;42.03;101770.34;5016794;28;46009;-72
2021/08/12 10:16:30;;;;;;;;;4.25;4.25;;;;;26.50;41.81;101756.13;5015061;28;45360;-72
2021/08/12 10:18:56;;;;;;;;;2.00;2.00;;;;;26.49;42.29;101760.63;5015988;28;45493;-72
2021/08/12 10:21:23;;;;;;;;;2.00;2.00;;;;;26.54;42.07;101770.75;5016452;28;45383;-72
2021/08/12 10:23:53;;;;;;;;;4.00;4.00;;;;;26.54;42.12;101753.91;5015969;28;45541;-72
2021/08/12 10:26:20;;;;;;;;;4.75;4.00;;;;;26.55;41.89;101755.53;5016320;28;45460;-73
2021/08/12 10:28:49;;;;;;;;;5.75;3.00;;;;;26.50;42.44;101748.94;5016321;28;46174;-72
2021/08/12 10:31:21;;;;;;;;;3.00;1.75;;;;;26.57;41.96;101756.22;5016640;28;45421;-72
2021/08/12 10:33:48;;;;;;;;;2.00;2.00;;;;;26.57;42.03;101756.22;5016199;28;45238;-73
2021/08/12 10:36:16;;;;;;;;;4.50;3.00;;;;;26.52;42.02;101744.25;5015955;28;45313;-72
2021/08/12 10:38:42;;;;;;;;;3.00;3.00;;;;;26.51;41.94;101745.28;5015864;28;45552;-73
2021/08/12 10:41:08;;;;;;;;;3.00;3.00;;;;;26.55;42.29;101739.53;5016125;28;45430;-73
2021/08/12 10:43:35;;;;;;;;;3.25;3.00;;;;;26.60;42.14;101748.63;5016541;28;45403;-72
2021/08/12 10:46:02;;;;;;;;;2.75;2.75;;;;;26.53;42.32;101734.41;5015954;28;45502;-73
2021/08/12 10:48:29;;;;;;;;;5.00;3.00;;;;;26.59;41.98;101751.50;5015818;28;45504;-73
2021/08/12 10:51:07;;;;;;;;;3.00;3.00;;;;;26.45;42.33;101726.50;5015715;28;45446;-73
2021/08/12 10:53:33;;;;;;;;;3.75;3.00;;;;;26.57;42.02;101742.88;5015629;28;47564;-72
2021/08/12 10:56:02;;;;;;;;;4.25;4.00;;;;;26.59;42.09;101743.50;5015837;28;45390;-73
2021/08/12 10:58:30;;;;;;;;;3.25;2.75;;;;;26.60;42.01;101747.78;5016190;28;46670;-72
2021/08/12 11:01:00;;;;;;;;;3.25;3.25;;;;;26.56;42.32;101743.88;5015612;28;45344;-72
2021/08/12 11:03:31;;;;;;;;;3.25;3.00;;;;;26.63;42.00;101750.09;5015614;28;45193;-72
2021/08/12 11:06:14;;;;;;;;;3.00;3.00;;;;;26.58;41.89;101745.34;5014889;28;45541;-72
2021/08/12 11:08:53;;;;;;;;;3.75;3.00;;;;;26.62;41.97;101745.78;5015099;28;45532;-73
2021/08/12 11:11:27;;;;;;;;;2.50;2.50;;;;;26.61;42.18;101744.97;5000734;28;45488;-72
2021/08/12 11:13:59;;;;;;;;;4.25;3.25;;;;;26.60;42.29;101750.47;5015893;28;45434;-73
2021/08/12 11:16:26;;;;;;;;;3.75;3.25;;;;;26.45;42.21;101723.84;5016166;28;45382;-72
2021/08/12 11:18:57;;;;;;;;;4.50;4.00;;;;;26.61;42.25;101752.13;5015470;28;45515;-72
2021/08/12 11:21:29;;;;;;;;;4.75;4.00;;;;;26.60;42.01;101745.97;5014929;28;45278;-72
2021/08/12 11:23:54;;;;;;;;;4.75;3.00;;;;;26.60;42.26;101758.47;5015371;28;45409;-72